Time;durP1;ratioP1;P1;durP2;ratioP2;P2;SDS_P1;SDS_P2;PMS_P1;PMS_P2;Temp;Humidity;BMP_temperature;BMP_pressure;BME280_temperature;BME280_humidity;BME280_pressure;Samples;Min_cycle;Max_cycle;Signal;HPM_P1;HPM_P2
2022/04/10 00:00:53;;;;;;;4.68;0.30;;;3.50;99.90;;;;;;5036127;28;20025;-74
2022/04/10 00:03:19;;;;;;;2.50;0.20;;;3.50;99.90;;;;;;5054126;28;20025;-74
2022/04/10 00:05:45;;;;;;;9.00;0.35;;;3.40;99.90;;;;;;5054721;28;20370;-74
2022/04/10 00:08:11;;;;;;;9.95;0.45;;;3.40;99.90;;;;;;5054009;28;20024;-74
2022/04/10 00:10:37;;;;;;;3.47;0.08;;;3.40;99.90;;;;;;5053965;28;20032;-74
2022/04/10 00:13:02;;;;;;;5.78;0.57;;;3.30;99.90;;;;;;5054007;28;20021;-74
2022/04/10 00:15:28;;;;;;;3.33;0.47;;;3.30;99.90;;;;;;5054436;28;20057;-74
2022/04/10 00:17:54;;;;;;;4.25;0.08;;;3.30;99.90;;;;;;5053922;28;20036;-74
2022/04/10 00:20:20;;;;;;;2.97;0.30;;;3.20;99.90;;;;;;5035933;28;20179;-74
2022/04/10 00:22:47;;;;;;;2.90;0.30;;;3.20;99.90;;;;;;5054543;28;20446;-75
2022/04/10 00:25:15;;;;;;;3.28;0.45;;;3.20;99.90;;;;;;5054065;28;20108;-75
2022/04/10 00:27:41;;;;;;;6.35;0.93;;;3.10;99.90;;;;;;5053766;28;20033;-75
2022/04/10 00:30:08;;;;;;;5.30;0.30;;;3.10;99.90;;;;;;5035951;28;20393;-75
2022/04/10 00:32:34;;;;;;;3.83;0.60;;;3.10;99.90;;;;;;5053583;28;20069;-75
2022/04/10 00:34:59;;;;;;;4.20;0.32;;;3.00;99.90;;;;;;5053675;28;20033;-75
2022/04/10 00:37:26;;;;;;;6.70;0.95;;;3.00;99.90;;;;;;5054003;28;20087;-74
2022/04/10 00:39:52;;;;;;;5.28;0.10;;;2.90;99.90;;;;;;5054013;28;20032;-74
2022/04/10 00:42:18;;;;;;;1.25;0.10;;;2.90;99.90;;;;;;5053596;28;20035;-74
2022/04/10 00:44:44;;;;;;;5.95;0.10;;;2.90;99.90;;;;;;5053874;28;20415;-74
2022/04/10 00:47:10;;;;;;;6.82;0.17;;;2.80;99.90;;;;;;5053706;28;20056;-74
2022/04/10 00:49:36;;;;;;;8.10;0.95;;;2.80;99.90;;;;;;5035718;28;20028;-74
2022/04/10 00:52:04;;;;;;;15.20;1.70;;;5.40;99.90;;;;;;5054391;28;20029;-75
2022/04/10 00:54:30;;;;;;;5.97;0.30;;;2.70;99.90;;;;;;5054974;28;20056;-75
2022/04/10 00:56:57;;;;;;;5.82;0.43;;;2.60;99.90;;;;;;5057578;28;20025;-75
2022/04/10 00:59:23;;;;;;;5.28;0.10;;;2.60;99.90;;;;;;5057565;28;20090;-75
2022/04/10 01:01:49;;;;;;;4.15;0.08;;;2.50;99.90;;;;;;5070571;28;20473;-75
2022/04/10 01:04:18;;;;;;;4.60;0.47;;;2.50;99.90;;;;;;5059366;28;20078;-75
2022/04/10 01:06:47;;;;;;;4.72;0.73;;;2.40;99.90;;;;;;5077811;28;20021;-75
2022/04/10 01:09:13;;;;;;;6.20;0.52;;;2.40;99.90;;;;;;5077517;28;20079;-75
2022/04/10 01:11:38;;;;;;;6.75;0.10;;;2.40;99.90;;;;;;5058607;28;20493;-75
2022/04/10 01:14:04;;;;;;;7.65;0.30;;;2.40;99.90;;;;;;5077361;28;20389;-75
2022/04/10 01:16:31;;;;;;;3.10;0.25;;;2.40;99.90;;;;;;5077755;28;20017;-75
2022/04/10 01:18:57;;;;;;;5.43;0.20;;;2.40;99.90;;;;;;5077747;28;20028;-75
2022/04/10 01:21:27;;;;;;;6.75;0.38;;;2.40;99.90;;;;;;5067353;28;20032;-75
2022/04/10 01:23:53;;;;;;;4.55;0.25;;;2.30;99.90;;;;;;5057414;28;20245;-75
2022/04/10 01:26:20;;;;;;;5.10;0.32;;;2.30;99.90;;;;;;5039403;28;20021;-75
2022/04/10 01:29:03;;;;;;;7.82;0.70;;;2.30;99.90;;;;;;5039204;28;20110;-75
2022/04/10 01:31:30;;;;;;;3.30;0.20;;;2.30;99.90;;;;;;5061000;28;20029;-75
2022/04/10 01:33:58;;;;;;;6.28;0.40;;;2.30;99.90;;;;;;5056910;28;20032;-75
2022/04/10 01:36:26;;;;;;;8.57;0.50;;;2.20;99.90;;;;;;5039164;28;20048;-75
2022/04/10 01:38:54;;;;;;;6.93;0.35;;;2.30;99.90;;;;;;5057507;28;20017;-75
2022/04/10 01:41:20;;;;;;;5.43;0.10;;;2.30;99.90;;;;;;5065174;28;20373;-75
2022/04/10 01:43:48;;;;;;;7.60;0.20;;;2.30;99.90;;;;;;5076685;28;20103;-75
2022/04/10 01:46:14;;;;;;;10.18;0.20;;;2.40;99.90;;;;;;5076715;28;20482;-75
2022/04/10 01:48:40;;;;;;;1.60;0.10;;;2.40;99.90;;;;;;5077261;28;20466;-75
2022/04/10 01:51:06;;;;;;;7.05;0.30;;;2.40;99.90;;;;;;5069931;28;20024;-75
2022/04/10 01:53:32;;;;;;;5.65;0.55;;;2.40;99.90;;;;;;5038638;28;20039;-75
2022/04/10 01:55:57;;;;;;;3.80;0.10;;;2.50;99.90;;;;;;5056633;28;20104;-75
2022/04/10 01:58:23;;;;;;;4.60;0.30;;;2.50;99.90;;;;;;5057682;28;20009;-75
2022/04/10 02:00:48;;;;;;;4.57;0.10;;;2.50;99.90;;;;;;5056214;28;20021;-75
2022/04/10 02:03:14;;;;;;;4.68;0.38;;;2.50;99.90;;;;;;5039410;28;20049;-75
2022/04/10 02:05:39;;;;;;;5.57;0.03;;;2.40;99.90;;;;;;5057674;28;20024;-75
2022/04/10 02:08:05;;;;;;;5.18;0.47;;;2.40;99.90;;;;;;5058290;28;20474;-75
2022/04/10 02:10:31;;;;;;;3.53;0.20;;;2.40;99.90;;;;;;5058608;28;20025;-75
2022/04/10 02:12:57;;;;;;;4.82;0.52;;;2.40;99.90;;;;;;5058424;28;20470;-75
2022/04/10 02:15:22;;;;;;;3.53;0.00;;;2.30;99.90;;;;;;5071897;28;20021;-75
2022/04/10 02:17:48;;;;;;;10.65;0.90;;;2.30;99.90;;;;;;5076655;28;20036;-75
2022/04/10 02:20:13;;;;;;;6.00;0.25;;;2.30;99.90;;;;;;5076042;28;20030;-75
2022/04/10 02:22:39;;;;;;;2.90;0.00;;;2.30;99.90;;;;;;5076195;28;20093;-75
2022/04/10 02:25:05;;;;;;;8.95;0.80;;;2.20;99.90;;;;;;5061162;28;20033;-75
2022/04/10 02:27:30;;;;;;;5.75;0.40;;;2.20;99.90;;;;;;5038404;28;20021;-75
2022/04/10 02:29:56;;;;;;;6.53;0.60;;;2.20;99.90;;;;;;5038105;28;20013;-75
2022/04/10 02:32:23;;;;;;;3.75;0.20;;;2.20;99.90;;;;;;5038585;28;20028;-75
2022/04/10 02:34:48;;;;;;;7.28;0.15;;;2.10;99.90;;;;;;5068280;28;20497;-75
2022/04/10 02:37:14;;;;;;;4.30;0.00;;;2.10;99.90;;;;;;5075819;28;20024;-75
2022/04/10 02:39:40;;;;;;;1.20;0.38;;;2.00;99.90;;;;;;5075863;28;20066;-75
2022/04/10 02:42:06;;;;;;;6.45;0.30;;;2.00;99.90;;;;;;5057749;28;20025;-75
2022/04/10 02:44:31;;;;;;;3.65;0.05;;;2.00;99.90;;;;;;5065903;28;20025;-75
2022/04/10 02:46:57;;;;;;;2.70;0.57;;;2.00;99.90;;;;;;5055699;28;20036;-75
2022/04/10 02:49:22;;;;;;;1.85;0.30;;;2.00;99.90;;;;;;5037861;28;20025;-75
2022/04/10 02:51:49;;;;;;;5.88;0.30;;;1.90;99.90;;;;;;5055545;28;20032;-75
2022/04/10 02:54:16;;;;;;;6.85;0.82;;;1.90;99.90;;;;;;5055305;28;20047;-75
2022/04/10 02:56:45;;;;;;;1.83;0.30;;;1.90;99.90;;;;;;5055460;28;20025;-75
2022/04/10 02:59:10;;;;;;;4.22;0.25;;;1.90;99.90;;;;;;5055334;28;20070;-75
2022/04/10 03:01:36;;;;;;;2.60;0.20;;;2.00;99.90;;;;;;5055071;28;20025;-75
2022/04/10 03:04:01;;;;;;;3.38;0.05;;;1.90;99.90;;;;;;5059343;28;20036;-75
2022/04/10 03:06:27;;;;;;;4.95;0.20;;;1.90;99.90;;;;;;5075085;28;20103;-75
2022/04/10 03:08:53;;;;;;;8.23;0.08;;;1.90;99.90;;;;;;5057235;28;20020;-75
2022/04/10 03:11:18;;;;;;;4.10;0.10;;;1.90;99.90;;;;;;5057370;28;20012;-75
2022/04/10 03:13:45;;;;;;;6.68;0.10;;;1.90;99.90;;;;;;5055164;28;20021;-75
2022/04/10 03:16:10;;;;;;;4.60;0.22;;;1.90;99.90;;;;;;5036992;28;20556;-75
2022/04/10 03:18:36;;;;;;;3.20;0.10;;;1.90;99.90;;;;;;5054458;28;20025;-75
2022/04/10 03:21:02;;;;;;;9.18;0.10;;;1.90;99.90;;;;;;5054828;28;20029;-75
2022/04/10 03:23:28;;;;;;;2.20;0.20;;;1.90;99.90;;;;;;5036897;28;20028;-75
2022/04/10 03:25:53;;;;;;;2.42;0.00;;;1.90;99.90;;;;;;5073434;28;20029;-76
2022/04/10 03:28:19;;;;;;;5.90;0.05;;;1.90;99.90;;;;;;5074728;28;20029;-75
2022/04/10 03:30:45;;;;;;;7.40;0.00;;;1.90;99.90;;;;;;5074834;28;20025;-75
2022/04/10 03:33:10;;;;;;;5.90;0.00;;;1.80;99.90;;;;;;5056706;28;20048;-75
2022/04/10 03:35:36;;;;;;;3.85;0.10;;;1.80;99.90;;;;;;5054405;28;20020;-75
2022/04/10 03:38:02;;;;;;;4.90;0.00;;;1.80;99.90;;;;;;5074473;28;20554;-75
2022/04/10 03:40:27;;;;;;;4.15;0.40;;;1.80;99.90;;;;;;5074568;28;20033;-75
2022/04/10 03:42:53;;;;;;;4.20;0.00;;;1.70;99.90;;;;;;5074502;28;20020;-75
2022/04/10 03:45:19;;;;;;;1.48;0.10;;;1.70;99.90;;;;;;5061833;28;20474;-75
2022/04/10 03:47:46;;;;;;;3.35;0.10;;;1.70;99.90;;;;;;5055077;28;20032;-75
2022/04/10 03:50:12;;;;;;;1.90;0.00;;;1.70;99.90;;;;;;5054260;28;20036;-75
2022/04/10 03:52:37;;;;;;;4.15;0.73;;;1.70;99.90;;;;;;5054572;28;20033;-75
2022/04/10 03:55:03;;;;;;;5.03;0.10;;;1.70;99.90;;;;;;5064373;28;20173;-75
2022/04/10 03:57:29;;;;;;;4.40;0.13;;;1.70;99.90;;;;;;5074227;28;20060;-75
2022/04/10 03:59:54;;;;;;;4.38;0.35;;;1.60;99.90;;;;;;5056108;28;20052;-75
2022/04/10 04:02:22;;;;;;;5.00;0.10;;;1.60;99.90;;;;;;5074192;28;20028;-75
2022/04/10 04:04:50;;;;;;;3.15;0.10;;;1.60;99.90;;;;;;5041821;28;20028;-75
2022/04/10 04:07:15;;;;;;;4.28;0.05;;;1.60;99.90;;;;;;5054025;28;20053;-75
2022/04/10 04:09:41;;;;;;;4.63;0.45;;;1.60;99.90;;;;;;5036051;28;20028;-75
2022/04/10 04:12:07;;;;;;;6.03;0.17;;;1.60;99.90;;;;;;5036090;28;20037;-75
2022/04/10 04:14:32;;;;;;;6.90;0.08;;;1.60;99.90;;;;;;5065128;28;20386;-75
2022/04/10 04:16:59;;;;;;;4.90;0.10;;;1.60;99.90;;;;;;5055993;28;20020;-75
2022/04/10 04:19:24;;;;;;;5.60;0.17;;;1.60;99.90;;;;;;5056039;28;20036;-75
2022/04/10 04:21:50;;;;;;;4.78;0.00;;;1.60;99.90;;;;;;5055690;28;20073;-75
2022/04/10 04:24:15;;;;;;;1.35;0.00;;;1.60;99.90;;;;;;5053385;28;20044;-75
2022/04/10 04:26:41;;;;;;;2.22;0.10;;;1.60;99.90;;;;;;5055785;28;20029;-75
2022/04/10 04:29:06;;;;;;;3.67;0.00;;;1.70;99.90;;;;;;5072864;28;20063;-75
2022/04/10 04:31:32;;;;;;;4.63;0.32;;;1.70;99.90;;;;;;5073924;28;20026;-75
2022/04/10 04:33:57;;;;;;;1.17;0.00;;;1.90;99.90;;;;;;5066779;28;20375;-73
2022/04/10 04:36:23;;;;;;;1.23;0.30;;;2.00;99.90;;;;;;5053814;28;20020;-75
2022/04/10 04:38:48;;;;;;;10.13;1.00;;;2.10;99.90;;;;;;5053824;28;20485;-75
2022/04/10 04:41:14;;;;;;;7.82;0.32;;;2.10;99.90;;;;;;5035674;28;20111;-76
2022/04/10 04:43:39;;;;;;;3.70;0.00;;;2.20;99.90;;;;;;5057467;28;20028;-75
2022/04/10 04:46:05;;;;;;;2.80;0.00;;;2.20;99.90;;;;;;5074550;28;20055;-75
2022/04/10 04:48:31;;;;;;;1.42;0.10;;;2.20;99.90;;;;;;5055792;28;20025;-75
2022/04/10 04:50:57;;;;;;;2.47;0.00;;;2.30;99.90;;;;;;5056001;28;20097;-75
2022/04/10 04:53:22;;;;;;;1.90;0.13;;;2.30;99.90;;;;;;5054129;28;20155;-75
2022/04/10 04:55:48;;;;;;;8.02;0.10;;;2.30;99.90;;;;;;5053885;28;20036;-74
2022/04/10 04:58:13;;;;;;;2.78;0.00;;;2.20;99.90;;;;;;5054077;28;20066;-75
2022/04/10 05:00:39;;;;;;;3.13;0.00;;;2.20;99.90;;;;;;5053558;28;20021;-75
2022/04/10 05:03:04;;;;;;;3.67;0.30;;;2.30;99.90;;;;;;5054001;28;20033;-75
2022/04/10 05:05:30;;;;;;;3.47;0.10;;;2.30;99.90;;;;;;5054749;28;20029;-75
2022/04/10 05:07:56;;;;;;;1.33;0.00;;;2.30;99.90;;;;;;5053529;28;20355;-74
2022/04/10 05:10:21;;;;;;;5.93;0.43;;;2.30;99.90;;;;;;5053540;28;20021;-74
2022/04/10 05:12:47;;;;;;;4.80;0.30;;;2.20;99.90;;;;;;5054004;28;20021;-74
2022/04/10 05:15:13;;;;;;;7.45;1.30;;;2.30;99.90;;;;;;5063498;28;20111;-75
2022/04/10 05:17:38;;;;;;;3.83;0.43;;;2.20;99.90;;;;;;5055191;28;20017;-75
2022/04/10 05:20:05;;;;;;;7.28;0.13;;;2.20;99.90;;;;;;5056444;28;20032;-76
2022/04/10 05:22:30;;;;;;;5.82;0.25;;;2.20;99.90;;;;;;5052986;28;20075;-76
2022/04/10 05:24:56;;;;;;;1.63;0.03;;;2.20;99.90;;;;;;5064828;28;20021;-75
2022/04/10 05:27:21;;;;;;;4.75;0.03;;;2.20;99.90;;;;;;5072939;28;20021;-75
2022/04/10 05:29:47;;;;;;;5.28;0.03;;;2.20;99.90;;;;;;5073191;28;20029;-76
2022/04/10 05:32:13;;;;;;;1.10;0.00;;;2.30;99.90;;;;;;5073325;28;20017;-76
2022/04/10 05:34:38;;;;;;;6.32;0.65;;;2.30;99.90;;;;;;5063814;28;20390;-76
2022/04/10 05:37:04;;;;;;;3.35;0.43;;;2.30;99.90;;;;;;5053276;28;20021;-74
2022/04/10 05:39:29;;;;;;;2.15;0.10;;;2.40;99.90;;;;;;5035308;28;20025;-74
2022/04/10 05:41:55;;;;;;;5.68;0.30;;;2.40;99.90;;;;;;5056914;28;20104;-74
2022/04/10 05:44:21;;;;;;;2.15;0.30;;;2.50;99.90;;;;;;5056846;28;20028;-74
2022/04/10 05:46:46;;;;;;;8.15;0.47;;;2.60;99.90;;;;;;5056917;28;20059;-74
2022/04/10 05:49:12;;;;;;;6.40;0.10;;;2.70;99.90;;;;;;5038993;28;20528;-74
2022/04/10 05:51:37;;;;;;;6.03;0.20;;;2.80;99.90;;;;;;5038718;28;20108;-74
2022/04/10 05:54:03;;;;;;;4.18;0.45;;;2.90;99.90;;;;;;5056313;28;20364;-74
2022/04/10 05:56:29;;;;;;;6.63;0.25;;;3.00;99.90;;;;;;5056537;28;20025;-74
2022/04/10 05:58:54;;;;;;;7.00;0.10;;;3.00;99.90;;;;;;5038818;28;20025;-74
2022/04/10 06:01:20;;;;;;;3.80;0.52;;;3.10;99.90;;;;;;5056579;28;20509;-74
2022/04/10 06:03:45;;;;;;;7.28;0.28;;;3.20;99.90;;;;;;5060862;28;20097;-74
2022/04/10 06:06:11;;;;;;;2.38;0.50;;;3.30;99.90;;;;;;5056817;28;20032;-74
2022/04/10 06:08:36;;;;;;;2.42;0.10;;;3.50;99.90;;;;;;5056369;28;20037;-74
2022/04/10 06:11:03;;;;;;;2.55;0.10;;;3.60;99.90;;;;;;5056538;28;20106;-74
2022/04/10 06:13:28;;;;;;;8.18;0.43;;;3.80;99.90;;;;;;5056930;28;20044;-74
2022/04/10 06:15:54;;;;;;;1.60;0.00;;;3.90;99.90;;;;;;5056539;28;20017;-74
2022/04/10 06:18:20;;;;;;;2.53;0.00;;;3.90;99.90;;;;;;5056330;28;20025;-74
2022/04/10 06:20:45;;;;;;;4.88;0.10;;;3.90;99.90;;;;;;5056316;28;20029;-74
2022/04/10 06:23:12;;;;;;;4.43;0.00;;;3.80;99.90;;;;;;5038412;28;20021;-74
2022/04/10 06:25:38;;;;;;;1.40;0.00;;;3.80;99.90;;;;;;5056269;28;20025;-74
2022/04/10 06:28:03;;;;;;;1.95;0.43;;;3.80;99.90;;;;;;5038341;28;20075;-74
2022/04/10 06:30:29;;;;;;;2.72;0.65;;;3.80;99.90;;;;;;5056146;28;20025;-74
2022/04/10 06:32:54;;;;;;;5.40;0.50;;;3.80;99.90;;;;;;5056243;28;20032;-74
2022/04/10 06:35:20;;;;;;;4.65;0.20;;;3.80;99.90;;;;;;5038054;28;20124;-74
2022/04/10 06:37:46;;;;;;;4.88;0.05;;;3.80;99.90;;;;;;5056201;28;20460;-74
2022/04/10 06:40:11;;;;;;;1.65;0.10;;;3.90;99.90;;;;;;5060182;28;20029;-74
2022/04/10 06:42:39;;;;;;;2.60;0.00;;;4.00;99.90;;;;;;5055982;28;20058;-74
2022/04/10 06:45:05;;;;;;;2.70;0.00;;;4.00;99.90;;;;;;5055844;28;20616;-74
2022/04/10 06:47:31;;;;;;;1.17;0.15;;;4.10;99.90;;;;;;5037706;28;20402;-74
2022/04/10 06:49:58;;;;;;;5.43;0.00;;;4.20;99.90;;;;;;5071576;28;20099;-74
2022/04/10 06:52:23;;;;;;;0.98;0.25;;;4.20;99.90;;;;;;5076070;28;20031;-74
2022/04/10 06:54:49;;;;;;;1.73;0.10;;;4.20;99.90;;;;;;5075912;28;20381;-74
2022/04/10 06:57:14;;;;;;;3.47;0.15;;;4.20;99.90;;;;;;5057700;28;20046;-74
2022/04/10 06:59:40;;;;;;;2.78;0.10;;;4.30;99.90;;;;;;5057502;28;20028;-74
2022/04/10 07:02:06;;;;;;;2.63;0.10;;;4.30;99.90;;;;;;5075272;28;20028;-74
2022/04/10 07:04:31;;;;;;;4.00;0.25;;;4.40;99.90;;;;;;5075303;28;20032;-74
2022/04/10 07:06:57;;;;;;;1.52;0.10;;;4.50;99.90;;;;;;5075392;28;20074;-74
2022/04/10 07:09:22;;;;;;;1.85;0.30;;;4.50;99.90;;;;;;5075210;28;20070;-74
2022/04/10 07:11:48;;;;;;;1.52;0.00;;;4.70;99.90;;;;;;5057449;28;20032;-74
2022/04/10 07:14:13;;;;;;;0.52;0.00;;;4.80;99.90;;;;;;5074942;28;20050;-74
2022/04/10 07:16:39;;;;;;;3.85;0.00;;;4.90;99.90;;;;;;5054924;28;20025;-74
2022/04/10 07:19:06;;;;;;;2.70;0.00;;;5.20;99.90;;;;;;5055390;28;20017;-74
2022/04/10 07:24:15;;;;;;;1.90;0.00;;;5.60;99.90;;;;;;5055742;28;20192;-74
2022/04/10 07:26:41;;;;;;;1.35;0.00;;;5.90;99.90;;;;;;5054452;28;20067;-74
2022/04/10 07:29:10;;;;;;;1.17;0.13;;;6.10;99.90;;;;;;5038154;28;20095;-74
2022/04/10 07:31:36;;;;;;;;;;;6.40;99.90;;;;;;5037201;28;20017;-74
2022/04/10 07:34:01;;;;;;;1.23;0.00;;;6.30;99.90;;;;;;5054631;28;19919;-74
2022/04/10 07:36:27;;;;;;;4.32;0.00;;;6.50;99.90;;;;;;5054722;28;20021;-74
2022/04/10 07:38:52;;;;;;;0.25;0.03;;;6.60;99.90;;;;;;5036690;28;20060;-74
2022/04/10 07:41:18;;;;;;;3.75;0.00;;;6.80;99.90;;;;;;5055056;28;20021;-74
2022/04/10 07:43:43;;;;;;;0.93;0.05;;;6.90;99.90;;;;;;5054603;28;20021;-74
2022/04/10 07:48:53;;;;;;;2.67;0.00;;;7.20;99.90;;;;;;5055019;28;20527;-74
2022/04/10 07:51:18;;;;;;;1.17;0.00;;;7.30;99.90;;;;;;5054641;28;20084;-74
2022/04/10 07:53:44;;;;;;;4.60;0.10;;;7.40;99.90;;;;;;5054413;28;20017;-74
2022/04/10 07:56:09;;;;;;;2.83;0.00;;;7.50;99.90;;;;;;5036280;28;20029;-75
2022/04/10 07:58:36;;;;;;;2.35;0.03;;;7.60;99.90;;;;;;5054520;28;20013;-75
2022/04/10 08:01:02;;;;;;;2.22;0.00;;;7.70;99.90;;;;;;5054248;28;20108;-74
2022/04/10 08:03:28;;;;;;;1.85;0.20;;;7.80;99.90;;;;;;5053457;28;20206;-75
2022/04/10 08:05:54;;;;;;;1.13;0.00;;;7.90;99.90;;;;;;5053580;28;20035;-75
2022/04/10 08:08:19;;;;;;;3.30;0.00;;;8.00;99.90;;;;;;5054353;28;20029;-74
2022/04/10 08:10:45;;;;;;;2.40;0.45;;;8.10;99.90;;;;;;5054058;28;20482;-74
2022/04/10 08:13:11;;;;;;;0.68;0.00;;;8.20;99.90;;;;;;5053933;28;20025;-74
2022/04/10 08:15:36;;;;;;;3.40;0.10;;;8.30;99.90;;;;;;5054220;28;20029;-74
2022/04/10 08:18:02;;;;;;;2.83;0.68;;;8.70;99.90;;;;;;5053995;28;20021;-75
2022/04/10 08:20:28;;;;;;;4.10;0.00;;;8.80;99.90;;;;;;5054259;28;20548;-74
2022/04/10 08:22:55;;;;;;;2.05;0.10;;;9.00;99.90;;;;;;5036276;28;20051;-74
2022/04/10 08:25:23;;;;;;;5.00;0.20;;;9.10;99.90;;;;;;5054135;28;20124;-74
2022/04/10 08:27:51;;;;;;;4.00;0.00;;;8.70;99.90;;;;;;5054600;28;20136;-74
2022/04/10 08:30:20;;;;;;;0.75;0.10;;;8.60;99.90;;;;;;5036086;28;20025;-75
2022/04/10 08:32:48;;;;;;;;;;;8.90;99.90;;;;;;5054416;28;20040;-74
2022/04/10 08:35:15;;;;;;;0.32;0.00;;;8.40;99.90;;;;;;5054115;28;19913;-74
2022/04/10 08:37:41;;;;;;;1.02;0.10;;;8.20;99.90;;;;;;5053948;28;20112;-74
2022/04/10 08:40:08;;;;;;;2.83;0.00;;;8.20;99.90;;;;;;5054163;28;20056;-74
2022/04/10 08:42:34;;;;;;;2.25;0.20;;;8.30;99.90;;;;;;5053983;28;20021;-74
2022/04/10 08:44:59;;;;;;;2.72;0.10;;;8.60;99.90;;;;;;5054050;28;20036;-74
2022/04/10 08:47:30;;;;;;;1.73;0.00;;;8.80;99.90;;;;;;5036013;28;20033;-74
2022/04/10 08:49:56;;;;;;;1.63;0.00;;;8.80;99.90;;;;;;5036062;28;20028;-74
2022/04/10 08:52:22;;;;;;;1.60;0.10;;;8.80;99.90;;;;;;5035578;28;20032;-74
2022/04/10 08:54:49;;;;;;;0.20;0.00;;;8.80;99.90;;;;;;5053657;28;20032;-74
2022/04/10 08:57:15;;;;;;;2.03;0.00;;;8.60;99.90;;;;;;5053540;28;20082;-74
2022/04/10 08:59:41;;;;;;;4.03;0.00;;;8.60;99.90;;;;;;5054126;28;20028;-74
2022/04/10 09:02:08;;;;;;;11.43;0.75;;;8.80;99.90;;;;;;5053628;28;20545;-74
2022/04/10 09:04:34;;;;;;;4.40;0.30;;;9.10;99.90;;;;;;5053684;28;20017;-76
2022/04/10 09:07:03;;;;;;;5.30;0.38;;;9.40;99.90;;;;;;5054027;28;20029;-76
2022/04/10 09:09:30;;;;;;;1.05;0.00;;;9.60;99.90;;;;;;5035910;28;20043;-76
2022/04/10 09:11:56;;;;;;;5.15;0.95;;;9.70;99.90;;;;;;5053046;28;20068;-76
2022/04/10 09:14:22;;;;;;;4.10;0.17;;;9.70;99.90;;;;;;5053330;28;20145;-76
2022/04/10 09:17:11;;;;;;;1.73;0.00;;;9.70;99.90;;;;;;5056920;28;20021;-76
2022/04/10 09:19:39;;;;;;;3.53;0.20;;;9.80;99.90;;;;;;5057457;28;20013;-76
2022/04/10 09:22:24;;;;;;;4.57;0.00;;;9.80;99.90;;;;;;5057343;28;20488;-76
2022/04/10 09:25:13;;;;;;;5.38;0.00;;;9.90;99.90;;;;;;5039395;28;20107;-76
2022/04/10 09:27:49;;;;;;;4.90;0.00;;;10.10;99.90;;;;;;5039319;28;20017;-76
2022/04/10 09:30:17;;;;;;;75.20;24.08;;;10.20;97.30;;;;;;5057480;28;20474;-76
2022/04/10 09:32:44;;;;;;;4.43;0.17;;;10.20;98.10;;;;;;5056541;28;20052;-76
2022/04/10 09:35:13;;;;;;;23.10;6.82;;;10.30;92.00;;;;;;5057200;28;20112;-76
2022/04/10 09:37:48;;;;;;;26.45;8.23;;;10.30;94.60;;;;;;5039370;28;20017;-76
2022/04/10 09:40:35;;;;;;;5.05;1.00;;;10.40;93.40;;;;;;5056963;28;20043;-76
2022/04/10 09:43:06;;;;;;;1.80;0.00;;;10.50;90.20;;;;;;5019393;28;20071;-76
2022/04/10 09:45:43;;;;;;;2.42;0.35;;;10.60;85.80;;;;;;5037096;28;20033;-76
2022/04/10 09:48:30;;;;;;;2.33;0.15;;;10.60;86.60;;;;;;5037661;28;20438;-76
2022/04/10 09:51:01;;;;;;;0.30;0.00;;;10.70;87.60;;;;;;5040299;28;20108;-76
2022/04/10 09:53:27;;;;;;;6.40;0.32;;;10.70;85.90;;;;;;5038815;28;20021;-76
2022/04/10 09:55:54;;;;;;;2.25;0.00;;;10.80;91.00;;;;;;5038705;28;20025;-76
2022/04/10 09:58:20;;;;;;;4.45;0.15;;;10.80;82.90;;;;;;5057188;28;20109;-76
2022/04/10 10:00:59;;;;;;;1.08;0.20;;;10.90;86.00;;;;;;5038233;28;20554;-76
2022/04/10 10:03:29;;;;;;;1.27;0.00;;;10.80;78.90;;;;;;5056202;28;20017;-76
2022/04/10 10:05:56;;;;;;;2.45;0.00;;;10.90;77.40;;;;;;5056644;28;20049;-76
2022/04/10 10:08:23;;;;;;;3.85;0.00;;;11.00;77.20;;;;;;5056449;28;20071;-76
2022/04/10 10:10:49;;;;;;;2.00;0.10;;;11.10;79.20;;;;;;5056151;28;20100;-76
2022/04/10 10:13:15;;;;;;;2.20;0.08;;;11.30;77.10;;;;;;5056931;28;20116;-76
2022/04/10 10:15:42;;;;;;;0.95;0.00;;;11.50;80.50;;;;;;5038771;28;20114;-75
2022/04/10 10:18:10;;;;;;;2.33;0.00;;;11.70;76.40;;;;;;5038540;28;20025;-75
2022/04/10 10:20:36;;;;;;;2.67;0.30;;;11.60;81.60;;;;;;5056511;28;20044;-75
2022/04/10 10:23:09;;;;;;;3.42;0.13;;;11.20;82.00;;;;;;5056549;28;20017;-75
2022/04/10 10:25:59;;;;;;;2.30;0.00;;;10.90;87.10;;;;;;5056916;28;20421;-75
2022/04/10 10:28:55;;;;;;;2.92;0.13;;;10.70;86.50;;;;;;5055887;28;20037;-75
2022/04/10 10:31:57;;;;;;;1.02;0.00;;;10.90;87.10;;;;;;5038404;28;20064;-75
2022/04/10 10:34:25;;;;;;;0.95;0.10;;;11.10;82.90;;;;;;5038240;28;20484;-75
2022/04/10 10:36:54;;;;;;;0.17;0.00;;;11.40;80.20;;;;;;5055880;28;20021;-75
2022/04/10 10:39:20;;;;;;;1.85;0.00;;;11.60;83.50;;;;;;5055933;28;20075;-75
2022/04/10 10:41:50;;;;;;;4.10;0.70;;;11.80;82.80;;;;;;5056020;28;20067;-75
2022/04/10 10:44:36;;;;;;;3.03;0.00;;;11.60;76.40;;;;;;5037923;28;20070;-75
2022/04/10 10:47:03;;;;;;;2.08;0.00;;;11.40;78.80;;;;;;5055170;28;20021;-75
2022/04/10 10:49:44;;;;;;;7.28;0.43;;;11.10;69.00;;;;;;5055811;28;20040;-74
2022/04/10 10:52:11;;;;;;;1.35;0.00;;;11.00;72.10;;;;;;5056154;28;20044;-75
2022/04/10 10:54:45;;;;;;;2.08;0.03;;;11.10;72.90;;;;;;5038163;28;20058;-74
2022/04/10 10:57:22;;;;;;;3.00;0.00;;;11.50;73.30;;;;;;5055292;28;20025;-75
2022/04/10 11:00:04;;;;;;;1.25;0.00;;;11.80;80.90;;;;;;5056117;28;20381;-75
2022/04/10 11:02:35;;;;;;;0.75;0.00;;;12.10;76.00;;;;;;5037400;28;20024;-74
2022/04/10 11:05:08;;;;;;;2.00;0.00;;;12.00;73.60;;;;;;5037561;28;20485;-74
2022/04/10 11:07:39;;;;;;;0.85;0.00;;;12.20;78.80;;;;;;5055010;28;20025;-75
2022/04/10 11:10:11;;;;;;;2.08;0.00;;;12.40;79.50;;;;;;5055111;28;20024;-75
2022/04/10 11:12:54;;;;;;;1.65;0.15;;;12.50;74.30;;;;;;5036999;28;20116;-75
2022/04/10 11:15:23;;;;;;;1.60;0.00;;;12.30;72.60;;;;;;5054819;28;20020;-75
2022/04/10 11:17:51;;;;;;;3.90;0.00;;;12.30;71.00;;;;;;5054753;28;20060;-75
2022/04/10 11:20:20;;;;;;;1.60;0.00;;;12.50;74.80;;;;;;5054906;28;20060;-75
2022/04/10 11:22:59;;;;;;;3.53;0.00;;;12.60;68.40;;;;;;5036701;28;20370;-75
2022/04/10 11:25:27;;;;;;;0.22;0.00;;;12.80;65.80;;;;;;5054968;28;20051;-75
2022/04/10 11:28:04;;;;;;;3.53;0.00;;;12.80;66.50;;;;;;5036941;28;20037;-75
2022/04/10 11:30:33;;;;;;;6.18;0.45;;;12.50;67.10;;;;;;5054730;28;20033;-74
2022/04/10 11:32:58;;;;;;;2.20;0.38;;;12.30;71.00;;;;;;5036776;28;20563;-75
2022/04/10 11:35:33;;;;;;;0.75;0.00;;;11.90;70.40;;;;;;5036910;28;20025;-75
2022/04/10 11:37:59;;;;;;;5.32;0.38;;;11.60;72.60;;;;;;5054818;28;20056;-75
2022/04/10 11:40:30;;;;;;;5.53;0.00;;;11.40;72.20;;;;;;5054357;28;20049;-75
2022/04/10 11:42:58;;;;;;;0.60;0.00;;;11.60;71.00;;;;;;5036439;28;20382;-75
2022/04/10 11:45:26;;;;;;;2.33;0.22;;;12.10;75.10;;;;;;5036250;28;20025;-75
2022/04/10 11:47:52;;;;;;;2.90;0.47;;;12.60;72.70;;;;;;5036208;28;20021;-75
2022/04/10 11:50:19;;;;;;;3.30;0.00;;;13.00;68.70;;;;;;5036078;28;20087;-75
2022/04/10 11:53:05;;;;;;;3.67;0.00;;;13.40;69.00;;;;;;5054004;28;20021;-75
2022/04/10 11:55:51;;;;;;;5.18;0.35;;;13.70;66.30;;;;;;5035927;28;20021;-75
2022/04/10 11:58:22;;;;;;;4.65;0.10;;;13.70;67.80;;;;;;5054157;28;20017;-75
2022/04/10 12:01:01;;;;;;;2.65;0.00;;;13.60;67.50;;;;;;5035963;28;20048;-75
2022/04/10 12:03:29;;;;;;;1.70;0.00;;;13.30;64.20;;;;;;5035909;28;20025;-75
2022/04/10 12:05:55;;;;;;;5.00;0.13;;;13.00;65.60;;;;;;5053975;28;20470;-75
2022/04/10 12:08:22;;;;;;;1.17;0.00;;;13.10;69.20;;;;;;5054142;28;20413;-76
2022/04/10 12:10:55;;;;;;;0.28;0.00;;;13.00;60.40;;;;;;5053887;28;20025;-75
2022/04/10 12:13:31;;;;;;;1.75;0.00;;;13.10;57.00;;;;;;5053749;28;20477;-75
2022/04/10 12:16:01;;;;;;;4.07;0.00;;;13.40;61.50;;;;;;5053388;28;20100;-75
2022/04/10 12:18:27;;;;;;;0.75;0.00;;;13.60;61.90;;;;;;5053534;28;20017;-75
2022/04/10 12:21:03;;;;;;;0.60;0.00;;;13.90;52.50;;;;;;5053224;28;20039;-75
2022/04/10 12:23:29;;;;;;;1.92;0.38;;;14.00;52.00;;;;;;5053362;28;20428;-75
2022/04/10 12:25:57;;;;;;;1.73;0.10;;;13.70;57.80;;;;;;5053293;28;20017;-75
2022/04/10 12:28:23;;;;;;;0.03;0.00;;;13.90;56.80;;;;;;5053163;28;20488;-75
2022/04/10 12:30:49;;;;;;;1.13;0.00;;;13.60;54.00;;;;;;5053376;28;20025;-75
2022/04/10 12:33:17;;;;;;;3.47;0.00;;;13.40;51.60;;;;;;5035321;28;20060;-75
2022/04/10 12:35:44;;;;;;;1.60;0.03;;;13.70;55.10;;;;;;5053097;28;20054;-75
2022/04/10 12:38:13;;;;;;;2.83;0.38;;;14.10;57.20;;;;;;5053519;28;20021;-75
2022/04/10 12:40:41;;;;;;;3.38;0.00;;;14.50;58.80;;;;;;5035380;28;20025;-75
2022/04/10 12:43:07;;;;;;;2.00;0.00;;;14.70;59.90;;;;;;5035237;28;20075;-75
2022/04/10 12:45:38;;;;;;;1.30;0.00;;;14.90;56.20;;;;;;5053113;28;20474;-75
2022/04/10 12:48:25;;;;;;;0.80;0.00;;;14.50;55.20;;;;;;5035240;28;20055;-75
2022/04/10 12:51:23;;;;;;;3.90;0.52;;;14.20;57.20;;;;;;5052766;28;20071;-75
2022/04/10 12:53:49;;;;;;;5.05;0.00;;;13.80;57.50;;;;;;5009238;28;20045;-75
2022/04/10 12:56:22;;;;;;;1.10;0.10;;;13.30;58.80;;;;;;5053109;28;20021;-75
2022/04/10 12:58:51;;;;;;;4.65;0.00;;;13.10;61.20;;;;;;5052833;28;20424;-75
2022/04/10 13:01:28;;;;;;;1.60;0.00;;;13.10;59.70;;;;;;5053251;28;20037;-76
2022/04/10 13:03:56;;;;;;;0.65;0.10;;;13.30;72.90;;;;;;5052984;28;20025;-76